createdAt,value
2018-12-10T00:01:06.788Z,2.00
2018-12-10T00:03:37.418Z,2.20
2018-12-10T00:06:07.749Z,2.03
2018-12-10T00:08:39.925Z,2.50
2018-12-10T00:11:12.998Z,2.30
2018-12-10T00:13:46.623Z,1.83
2018-12-10T00:16:17.857Z,2.50
2018-12-10T00:18:51.860Z,2.43
2018-12-10T00:21:28.040Z,1.97
2018-12-10T00:26:43.404Z,2.03
2018-12-10T00:29:17.418Z,1.67
2018-12-10T00:31:48.585Z,1.83
2018-12-10T00:34:18.472Z,1.70
2018-12-10T00:36:48.188Z,2.30
2018-12-10T00:39:18.007Z,1.73
2018-12-10T00:41:53.441Z,2.50
2018-12-10T00:44:25.713Z,2.23
2018-12-10T00:46:59.717Z,2.00
2018-12-10T00:49:32.815Z,1.60
2018-12-10T00:52:02.826Z,1.87
2018-12-10T00:54:33.041Z,1.97
2018-12-10T00:57:06.337Z,1.80
2018-12-10T00:59:36.169Z,1.80
2018-12-10T01:02:14.055Z,1.70
2018-12-10T01:04:44.374Z,1.80
2018-12-10T01:07:16.131Z,2.07
2018-12-10T01:09:49.840Z,1.60
2018-12-10T01:12:19.847Z,1.57
2018-12-10T01:14:51.403Z,1.87
2018-12-10T01:17:22.036Z,2.00
2018-12-10T01:19:54.835Z,2.27
2018-12-10T01:22:33.334Z,1.93
2018-12-10T01:25:07.031Z,2.43
2018-12-10T01:27:37.784Z,1.93
2018-12-10T01:30:09.326Z,2.17
2018-12-10T01:32:40.479Z,2.00
2018-12-10T01:35:12.054Z,1.80
2018-12-10T01:37:48.036Z,1.97
2018-12-10T01:42:52.725Z,2.17
2018-12-10T01:45:26.416Z,1.87
2018-12-10T01:47:56.027Z,2.43
2018-12-10T01:50:26.354Z,2.03
2018-12-10T01:53:05.177Z,2.23
2018-12-10T01:55:40.336Z,1.77
2018-12-10T01:58:12.601Z,2.60
2018-12-10T02:00:43.224Z,2.17
2018-12-10T02:03:15.270Z,1.50
2018-12-10T02:05:48.357Z,1.97
2018-12-10T02:08:22.584Z,1.90
2018-12-10T02:10:55.051Z,2.50
2018-12-10T02:13:31.422Z,2.07
2018-12-10T02:16:12.494Z,2.00
2018-12-10T02:42:50.754Z,2.40
2018-12-10T02:45:25.803Z,2.00
2018-12-10T02:47:58.158Z,1.63
2018-12-10T02:50:31.067Z,2.37
2018-12-10T02:53:01.887Z,3.13
2018-12-10T02:55:36.217Z,1.90
2018-12-10T02:58:08.994Z,1.90
2018-12-10T03:00:40.840Z,2.43
2018-12-10T03:03:17.723Z,2.33
2018-12-10T03:05:55.655Z,2.13
2018-12-10T03:08:29.007Z,2.70
2018-12-10T03:10:59.129Z,2.40
2018-12-10T03:13:29.046Z,2.03
2018-12-10T03:16:05.034Z,1.67
2018-12-10T03:18:37.379Z,2.00
2018-12-10T03:21:17.543Z,2.13
2018-12-10T03:23:52.043Z,1.80
2018-12-10T03:26:21.759Z,1.70
2018-12-10T03:28:51.473Z,1.93
2018-12-10T03:31:22.815Z,2.30
2018-12-10T03:33:56.516Z,3.37
2018-12-10T03:36:31.860Z,2.03
2018-12-10T03:39:02.410Z,2.40
2018-12-10T03:41:34.175Z,1.90
2018-12-10T03:44:04.271Z,1.63
2018-12-10T03:46:40.327Z,2.00
2018-12-10T03:49:11.191Z,1.73
2018-12-10T03:51:45.883Z,2.90
2018-12-10T03:54:19.787Z,2.30
2018-12-10T03:56:49.497Z,1.33
2018-12-10T03:59:21.366Z,0.97
2018-12-10T04:04:38.035Z,1.77
2018-12-10T04:07:08.943Z,1.87
2018-12-10T04:09:44.570Z,2.03
2018-12-10T04:12:15.328Z,2.43
2018-12-10T04:14:46.784Z,2.50
2018-12-10T04:17:17.075Z,1.70
2018-12-10T04:19:53.576Z,1.50
2018-12-10T04:22:25.400Z,1.63
2018-12-10T04:24:55.934Z,1.90
2018-12-10T04:27:25.877Z,1.60
2018-12-10T04:30:00.469Z,1.33
2018-12-10T04:32:33.456Z,1.30
2018-12-10T04:35:04.623Z,1.37
2018-12-10T04:37:38.514Z,1.50
2018-12-10T04:40:15.388Z,1.57
2018-12-10T04:42:46.445Z,1.80
2018-12-10T04:45:19.016Z,1.40
2018-12-10T04:47:48.644Z,1.83
2018-12-10T04:50:24.703Z,1.60
2018-12-10T04:52:54.809Z,1.83
2018-12-10T04:55:30.430Z,1.50
2018-12-10T04:58:01.396Z,1.70
2018-12-10T05:00:31.361Z,2.47
2018-12-10T05:03:03.481Z,2.57
2018-12-10T05:05:35.324Z,2.20
2018-12-10T05:08:05.599Z,2.33
2018-12-10T05:10:37.196Z,4.90
2018-12-10T05:13:11.057Z,2.50
2018-12-10T05:15:43.491Z,4.33
2018-12-10T05:18:15.240Z,4.03
2018-12-10T05:20:45.156Z,3.27
2018-12-10T06:30:46.210Z,2.50
2018-12-10T06:33:16.115Z,4.73
2018-12-10T06:35:45.836Z,6.67
2018-12-10T06:38:15.543Z,6.23
2018-12-10T06:40:45.659Z,3.63
2018-12-10T06:43:15.374Z,3.37
2018-12-10T06:45:46.077Z,2.70
2018-12-10T06:48:16.015Z,3.37
2018-12-10T06:50:45.833Z,3.70
2018-12-10T06:53:15.956Z,5.23
2018-12-10T06:55:46.486Z,4.30
2018-12-10T06:58:16.923Z,4.57
2018-12-10T07:00:47.046Z,6.00
2018-12-10T07:03:17.671Z,6.87
2018-12-10T07:05:47.891Z,5.60
2018-12-10T07:08:18.304Z,5.57
2018-12-10T07:10:48.851Z,4.80
2018-12-10T07:13:19.293Z,5.20
2018-12-10T07:15:50.063Z,4.20
2018-12-10T07:18:20.223Z,4.83
2018-12-10T07:20:50.118Z,4.90
2018-12-10T07:23:20.554Z,4.90
2018-12-10T07:44:34.929Z,6.77
2018-12-10T07:47:04.834Z,5.40
2018-12-10T07:49:34.865Z,6.97
2018-12-10T07:52:04.560Z,5.83
2018-12-10T07:54:34.474Z,7.37
2018-12-10T07:57:04.593Z,5.40
2018-12-10T07:59:35.040Z,6.03
2018-12-10T08:02:04.932Z,5.00
2018-12-10T08:04:34.959Z,6.40
2018-12-10T08:07:04.978Z,5.00
2018-12-10T08:09:34.989Z,4.93
2018-12-10T08:12:05.531Z,4.63
2018-12-10T08:14:36.151Z,4.40
2018-12-10T08:17:06.370Z,4.00
2018-12-10T08:19:36.399Z,4.43
2018-12-10T08:22:06.300Z,3.10
2018-12-10T08:24:36.420Z,3.33
2018-12-10T08:27:09.643Z,3.37
2018-12-10T08:29:38.695Z,3.50
2018-12-10T08:32:09.119Z,3.50
2018-12-10T08:34:41.457Z,4.17
2018-12-10T08:37:11.938Z,5.77
2018-12-10T08:39:43.699Z,3.87
2018-12-10T08:42:14.939Z,3.80
2018-12-10T08:44:45.057Z,4.10
2018-12-10T08:47:16.180Z,3.60
2018-12-10T08:49:46.947Z,4.07
2018-12-10T08:52:16.849Z,3.70
2018-12-10T08:54:47.288Z,4.13
2018-12-10T08:57:17.507Z,5.13
2018-12-10T08:59:48.043Z,3.30
2018-12-10T09:02:18.982Z,4.63
2018-12-10T09:04:49.176Z,4.10
2018-12-10T09:07:19.486Z,3.20
2018-12-10T09:09:49.093Z,2.90
2018-12-10T09:12:19.737Z,2.90
2018-12-10T09:14:49.857Z,3.63
2018-12-10T09:17:19.976Z,3.73
2018-12-10T09:19:49.905Z,3.57
2018-12-10T09:22:20.017Z,3.53
2018-12-10T09:24:50.446Z,4.60
2018-12-10T09:45:27.426Z,3.77
2018-12-10T09:47:57.437Z,3.07
2018-12-10T09:50:28.695Z,5.40
2018-12-10T09:53:01.377Z,4.50
2018-12-10T09:55:32.508Z,3.00
2018-12-10T09:58:03.056Z,2.83
2018-12-10T10:00:34.389Z,2.70
2018-12-10T10:03:04.816Z,3.40
2018-12-10T10:05:38.306Z,5.20
2018-12-10T10:08:09.457Z,3.87
2018-12-10T10:10:41.017Z,3.33
2018-12-10T10:13:11.236Z,3.53
2018-12-10T10:15:41.346Z,3.00
2018-12-10T10:18:13.058Z,3.13
2018-12-10T10:39:27.282Z,3.57
2018-12-10T10:41:57.489Z,4.10
2018-12-10T10:44:28.957Z,4.43
2018-12-10T10:46:58.867Z,4.10
2018-12-10T10:49:28.967Z,4.67
2018-12-10T10:51:59.077Z,3.60
2018-12-10T10:54:29.825Z,5.17
2018-12-10T10:57:00.255Z,4.67
2018-12-10T10:59:30.386Z,5.37
2018-12-10T11:02:04.206Z,4.23
2018-12-10T11:04:37.613Z,6.23
2018-12-10T11:07:06.050Z,6.80
2018-12-10T11:09:36.285Z,5.00
2018-12-10T11:12:07.031Z,4.63
2018-12-10T11:14:36.811Z,4.30
2018-12-10T11:17:07.157Z,3.57
2018-12-10T11:19:37.276Z,3.67
2018-12-10T11:22:07.270Z,3.63
2018-12-10T11:24:37.196Z,4.77
2018-12-10T11:27:07.216Z,4.40
2018-12-10T11:29:40.417Z,5.63
2018-12-10T11:32:10.627Z,4.93
2018-12-10T11:34:40.536Z,5.03
2018-12-10T11:37:10.556Z,3.53
2018-12-10T11:39:40.778Z,4.10
2018-12-10T11:42:10.797Z,4.90
2018-12-10T11:44:41.217Z,3.30
2018-12-10T11:47:13.201Z,4.10
2018-12-10T11:49:44.425Z,4.73
2018-12-10T11:52:15.357Z,4.73
2018-12-10T11:54:48.461Z,4.40
2018-12-10T11:57:22.356Z,3.53
2018-12-10T11:59:53.918Z,4.30
2018-12-10T12:02:29.746Z,7.57
2018-12-10T12:04:55.886Z,2.90
2018-12-10T12:07:26.090Z,3.50
2018-12-10T12:09:56.238Z,3.33
2018-12-10T12:12:27.284Z,3.20
2018-12-10T12:14:57.626Z,4.37
2018-12-10T12:17:27.817Z,3.73
2018-12-10T12:19:57.937Z,3.40
2018-12-10T12:22:28.047Z,3.17
2018-12-10T12:24:58.597Z,4.10
2018-12-10T12:27:29.316Z,3.53
2018-12-10T12:30:00.156Z,4.17
2018-12-10T12:32:30.165Z,3.00
2018-12-10T12:35:00.487Z,4.53
2018-12-10T12:37:30.623Z,4.00
2018-12-10T12:40:01.027Z,3.30
2018-12-10T12:42:31.475Z,3.17
2018-12-10T12:45:01.897Z,2.67
2018-12-10T12:47:32.105Z,3.67
2018-12-10T12:50:02.437Z,2.77
2018-12-10T12:52:32.862Z,4.10
2018-12-10T12:55:02.864Z,3.53
2018-12-10T12:57:32.786Z,5.20
2018-12-10T13:00:02.896Z,5.00
2018-12-10T13:02:32.914Z,6.70
2018-12-10T13:05:02.737Z,5.77
2018-12-10T13:07:33.185Z,4.57
2018-12-10T13:10:03.399Z,4.30
2018-12-10T13:12:32.978Z,5.60
2018-12-10T13:15:02.916Z,5.03
2018-12-10T13:17:32.910Z,3.83
2018-12-10T13:38:45.945Z,12.23
2018-12-10T13:41:15.973Z,11.37
2018-12-10T13:43:46.000Z,10.80
2018-12-10T13:46:15.905Z,10.37
2018-12-10T13:48:45.945Z,9.03
2018-12-10T13:51:15.836Z,6.20
2018-12-10T13:53:45.954Z,5.37
2018-12-10T13:56:15.935Z,4.70
2018-12-10T13:58:45.894Z,5.93
2018-12-10T14:01:16.014Z,7.70
2018-12-10T14:03:46.326Z,11.97
2018-12-10T14:06:16.444Z,9.97
2018-12-10T14:08:46.564Z,9.83
2018-12-10T14:11:16.676Z,8.63
2018-12-10T14:13:46.493Z,7.73
2018-12-10T14:16:16.945Z,5.67
2018-12-10T14:18:46.756Z,11.03
2018-12-10T14:21:16.957Z,8.53
2018-12-10T14:23:46.657Z,9.70
2018-12-10T14:26:17.511Z,8.77
2018-12-10T14:28:47.925Z,9.97
2018-12-10T14:31:27.339Z,5.40
2018-12-10T14:33:58.010Z,5.10
2018-12-10T14:36:27.694Z,5.53
2018-12-10T14:38:57.410Z,6.37
2018-12-10T14:41:27.426Z,5.73
2018-12-10T14:43:57.858Z,7.80
2018-12-10T14:46:28.887Z,7.17
2018-12-10T14:49:00.048Z,6.30
2018-12-10T14:51:31.308Z,6.87
2018-12-10T14:54:02.031Z,8.00
2018-12-10T14:56:32.351Z,11.50
2018-12-10T14:59:03.057Z,10.70
2018-12-10T15:01:33.194Z,7.27
2018-12-10T15:04:03.420Z,8.80
2018-12-10T15:06:33.433Z,6.73
2018-12-10T16:14:39.522Z,10.13
2018-12-10T16:17:09.928Z,7.43
2018-12-10T16:19:40.257Z,6.73
2018-12-10T16:22:10.382Z,7.90
2018-12-10T16:24:40.602Z,6.80
2018-12-10T16:27:10.942Z,6.90
2018-12-10T16:29:49.442Z,6.00
2018-12-10T16:32:34.811Z,8.77
2018-12-10T16:35:05.461Z,6.33
2018-12-10T16:37:35.681Z,7.17
2018-12-10T16:40:07.021Z,6.43
2018-12-10T16:42:36.950Z,7.03
2018-12-10T16:45:07.252Z,6.97
2018-12-10T16:47:45.682Z,7.03
2018-12-10T16:50:16.308Z,5.90
2018-12-10T16:52:46.413Z,5.97
2018-12-10T16:55:16.862Z,5.70
2018-12-10T16:57:46.441Z,5.90
2018-12-10T17:00:16.152Z,6.07
2018-12-10T17:02:46.181Z,6.47
2018-12-10T17:05:16.079Z,5.70
2018-12-10T17:07:46.424Z,6.23
2018-12-10T17:10:17.061Z,9.37
2018-12-10T17:12:46.842Z,6.97
2018-12-10T17:15:17.062Z,6.63
2018-12-10T17:17:47.311Z,6.00
2018-12-10T17:20:17.507Z,9.50
2018-12-10T17:22:47.961Z,7.80
2018-12-10T17:25:18.881Z,6.03
2018-12-10T17:27:48.685Z,6.80
2018-12-10T17:30:18.923Z,7.40
2018-12-10T17:32:49.241Z,5.97
2018-12-10T17:35:19.982Z,6.97
2018-12-10T17:37:50.203Z,8.03
2018-12-10T17:40:20.412Z,7.53
2018-12-10T17:42:50.222Z,6.03
2018-12-10T17:45:20.441Z,7.00
2018-12-10T17:47:50.562Z,6.30
2018-12-10T17:50:21.002Z,6.90
2018-12-10T17:52:51.222Z,6.33
2018-12-10T17:55:21.113Z,6.97
2018-12-10T17:57:51.062Z,7.23
2018-12-10T18:00:21.162Z,6.83
2018-12-10T18:02:51.175Z,10.07
2018-12-10T18:05:21.823Z,6.80
2018-12-10T18:07:54.990Z,6.13
2018-12-10T18:10:25.012Z,6.20
2018-12-10T18:12:54.825Z,5.90
2018-12-10T18:34:13.392Z,8.47
2018-12-10T18:36:44.246Z,7.73
2018-12-10T18:39:15.901Z,7.70
2018-12-10T18:41:46.538Z,9.93
2018-12-10T18:44:17.283Z,9.10
2018-12-10T18:46:47.380Z,10.73
2018-12-10T18:49:18.038Z,7.77
2018-12-10T18:51:48.037Z,7.87
2018-12-10T18:54:17.941Z,7.77
2018-12-10T18:56:50.910Z,8.57
2018-12-10T18:59:22.882Z,7.03
2018-12-10T19:01:53.008Z,7.07
2018-12-10T19:04:25.970Z,7.00
2018-12-10T19:06:56.942Z,7.70
2018-12-10T19:09:27.447Z,6.00
2018-12-10T19:12:01.047Z,7.67
2018-12-10T19:14:33.035Z,7.00
2018-12-10T19:17:05.017Z,7.20
2018-12-10T19:19:36.115Z,6.97
2018-12-10T19:22:06.471Z,6.27
2018-12-10T19:24:38.515Z,6.40
2018-12-10T19:27:09.038Z,5.70
2018-12-10T19:29:39.499Z,7.20
2018-12-10T19:32:10.016Z,14.83
2018-12-10T19:34:41.239Z,16.27
2018-12-10T19:37:13.306Z,14.00
2018-12-10T19:39:44.460Z,12.07
2018-12-10T19:42:16.324Z,11.73
2018-12-10T20:01:39.057Z,7.20
2018-12-10T20:04:10.306Z,8.47
2018-12-10T20:06:44.637Z,6.80
2018-12-10T20:09:15.453Z,6.97
2018-12-10T20:11:45.995Z,7.63
2018-12-10T20:14:15.897Z,8.50
2018-12-10T20:16:46.227Z,8.17
2018-12-10T20:19:16.346Z,8.97
2018-12-10T20:21:46.767Z,10.10
2018-12-10T20:24:20.047Z,9.67
2018-12-10T20:26:49.887Z,8.73
2018-12-10T20:29:22.674Z,9.87
2018-12-10T20:31:53.011Z,10.93
2018-12-10T20:34:24.455Z,11.27
2018-12-10T20:36:55.354Z,10.00
2018-12-10T20:39:26.213Z,10.40
2018-12-10T20:42:00.016Z,11.03
2018-12-10T20:44:30.322Z,10.47
2018-12-10T20:47:01.068Z,12.10
2018-12-10T20:49:35.423Z,11.90
2018-12-10T20:52:06.813Z,10.00
2018-12-10T20:54:39.037Z,9.13
2018-12-10T20:57:09.405Z,11.80
2018-12-10T20:59:43.355Z,10.10
2018-12-10T21:02:14.376Z,10.20
2018-12-10T21:04:46.547Z,9.40
2018-12-10T21:07:17.570Z,10.27
2018-12-10T21:09:49.023Z,11.87
2018-12-10T21:12:19.852Z,12.20
2018-12-10T21:14:49.981Z,11.77
2018-12-10T21:17:20.823Z,11.67
2018-12-10T21:19:50.957Z,12.77
2018-12-10T21:22:20.957Z,12.43
2018-12-10T21:24:54.754Z,12.40
2018-12-10T21:27:25.041Z,10.37
2018-12-10T21:29:55.416Z,10.40
2018-12-10T21:32:25.034Z,9.40
2018-12-10T21:34:54.720Z,8.63
2018-12-10T21:37:24.533Z,10.27
2018-12-10T21:39:54.675Z,9.90
2018-12-10T21:42:25.772Z,8.90
2018-12-10T21:44:56.414Z,8.60
2018-12-10T21:47:26.657Z,8.60
2018-12-10T21:49:57.056Z,8.70
2018-12-10T21:52:27.494Z,9.23
2018-12-10T21:54:57.916Z,9.07
2018-12-10T21:57:29.893Z,8.87
2018-12-10T22:00:00.097Z,10.30
2018-12-10T22:02:31.046Z,9.20
2018-12-10T22:05:01.055Z,8.30
2018-12-10T22:07:31.280Z,8.00
2018-12-10T22:10:01.073Z,8.23
2018-12-10T22:12:31.642Z,7.97
2018-12-10T22:15:01.657Z,8.67
2018-12-10T22:17:32.190Z,7.93
2018-12-10T22:20:02.487Z,7.67
2018-12-10T22:22:32.517Z,8.20
2018-12-10T22:25:02.708Z,8.80
2018-12-10T22:27:32.855Z,9.23
2018-12-10T22:30:03.064Z,8.63
2018-12-10T22:32:33.295Z,8.63
2018-12-10T22:35:04.016Z,8.93
2018-12-10T22:37:34.054Z,10.07
2018-12-10T22:40:04.576Z,9.40
2018-12-10T22:42:35.015Z,9.30
2018-12-10T22:45:05.415Z,8.60
2018-12-10T22:47:36.371Z,10.07
2018-12-10T22:50:07.414Z,9.23
2018-12-10T22:52:38.029Z,8.73
2018-12-10T22:55:08.062Z,8.77
2018-12-10T22:57:38.263Z,8.07
2018-12-10T23:00:09.324Z,9.60
2018-12-10T23:02:39.240Z,8.37
2018-12-10T23:05:09.248Z,8.00
2018-12-10T23:07:39.768Z,8.93
2018-12-10T23:28:54.443Z,7.03
2018-12-10T23:31:24.166Z,10.43
2018-12-10T23:33:55.008Z,10.40
2018-12-10T23:36:24.803Z,10.27
2018-12-10T23:38:55.034Z,7.60
2018-12-10T23:41:24.941Z,7.60
2018-12-10T23:43:54.979Z,8.17
2018-12-10T23:46:25.371Z,7.50
2018-12-10T23:48:55.797Z,8.40
2018-12-10T23:51:25.816Z,8.37
2018-12-10T23:53:55.973Z,9.87
2018-12-10T23:56:26.672Z,9.23
2018-12-10T23:58:56.598Z,7.87
